.
Local / Fort Wayne - NE Ind.

U N D E R   C O N S T R U C T I O N

Local Weather
Fort Wayne – NE Indiana

Northern Indiana (IWX) Radar

Latest IWX NEXRAD
Base Reflectivity



Latest IWX NEXRAD
Base Velocity

Indiana-Ohio Visible Satellite

For infrared and water vapor imagery, see Great Lakes - Midwest.

Current Conditions

Recent report from the Fort Wayne International Airport

Oct 21, 2018 - 04:54 PM EDT / 2018.10.21 2054 UTC


The skies are mostly clear. The temperature is 48.9 F (9.4 C) and the dew point is 34.0 F (1.1 C), giving a relative humidity of 56%. The barometric pressure is 30.23 in. Hg (1023 hPa) and falling. The wind is from the W (270 degrees) at 12 MPH (10 KT), and the visibility is 10 mile(s).

KFWA 212054Z 27010KT 10SM FEW039 09/01 A3023 RMK AO2 SLP241 T00940011 56028

Local Weather — Contents

Local Weather — Links

CoCoRaHS
IN-AL-39
A2 Web Hosting
Creative Commons License
GoDaddy
search engine by freefind advanced

loaded 2018-10-21 17:39:47 • last modified 2017-02-11 13:27:36
Privacy PolicyDisclaimer
• wx.awcolley.com is powered by PmWiki v.2002016 •
• all content (unless otherwise noted) © 2018 A W Colley